sensor_id;sensor_type;location;lat;lon;timestamp;P1;durP1;ratioP1;P2;durP2;ratioP2
79371;SDS011;68914;51.262;6.802;2023-05-07T00:00:32;7.82;;;4.55;;
79371;SDS011;68914;51.262;6.802;2023-05-07T00:01:34;8.02;;;4.43;;
79371;SDS011;68914;51.262;6.802;2023-05-07T00:02:35;9.07;;;4.88;;
79371;SDS011;68914;51.262;6.802;2023-05-07T00:03:35;9.13;;;4.80;;
79371;SDS011;68914;51.262;6.802;2023-05-07T00:04:36;9.23;;;4.55;;
79371;SDS011;68914;51.262;6.802;2023-05-07T00:05:39;8.55;;;4.88;;
79371;SDS011;68914;51.262;6.802;2023-05-07T00:06:40;7.97;;;4.70;;
79371;SDS011;68914;51.262;6.802;2023-05-07T00:07:40;10.47;;;4.70;;
79371;SDS011;68914;51.262;6.802;2023-05-07T00:08:41;8.75;;;4.82;;
79371;SDS011;68914;51.262;6.802;2023-05-07T00:09:42;9.80;;;4.83;;
79371;SDS011;68914;51.262;6.802;2023-05-07T00:10:42;9.50;;;4.70;;
79371;SDS011;68914;51.262;6.802;2023-05-07T00:11:43;9.82;;;4.95;;
79371;SDS011;68914;51.262;6.802;2023-05-07T00:12:44;8.30;;;4.73;;
79371;SDS011;68914;51.262;6.802;2023-05-07T00:13:44;10.25;;;5.20;;
79371;SDS011;68914;51.262;6.802;2023-05-07T00:14:45;10.60;;;4.97;;
79371;SDS011;68914;51.262;6.802;2023-05-07T00:15:46;9.13;;;5.10;;
79371;SDS011;68914;51.262;6.802;2023-05-07T00:16:46;11.10;;;5.30;;
79371;SDS011;68914;51.262;6.802;2023-05-07T00:17:47;11.00;;;5.27;;
79371;SDS011;68914;51.262;6.802;2023-05-07T00:18:48;9.90;;;4.88;;
79371;SDS011;68914;51.262;6.802;2023-05-07T00:19:48;10.23;;;5.70;;
79371;SDS011;68914;51.262;6.802;2023-05-07T00:20:49;9.88;;;5.45;;
79371;SDS011;68914;51.262;6.802;2023-05-07T00:21:50;9.30;;;5.33;;
79371;SDS011;68914;51.262;6.802;2023-05-07T00:22:50;9.35;;;5.32;;
79371;SDS011;68914;51.262;6.802;2023-05-07T00:23:51;8.68;;;5.07;;
79371;SDS011;68914;51.262;6.802;2023-05-07T00:24:53;9.48;;;5.30;;
79371;SDS011;68914;51.262;6.802;2023-05-07T00:25:55;10.27;;;5.10;;
79371;SDS011;68914;51.262;6.802;2023-05-07T00:26:56;8.75;;;5.20;;
79371;SDS011;68914;51.262;6.802;2023-05-07T00:27:58;9.32;;;5.00;;
79371;SDS011;68914;51.262;6.802;2023-05-07T00:29:03;11.32;;;4.95;;
79371;SDS011;68914;51.262;6.802;2023-05-07T00:30:04;11.95;;;5.13;;
79371;SDS011;68914;51.262;6.802;2023-05-07T00:31:08;10.43;;;5.00;;
79371;SDS011;68914;51.262;6.802;2023-05-07T00:32:09;8.10;;;4.75;;
79371;SDS011;68914;51.262;6.802;2023-05-07T00:33:10;9.00;;;5.07;;
79371;SDS011;68914;51.262;6.802;2023-05-07T00:34:11;9.23;;;5.22;;
79371;SDS011;68914;51.262;6.802;2023-05-07T00:35:11;10.17;;;5.37;;
79371;SDS011;68914;51.262;6.802;2023-05-07T00:36:12;9.75;;;5.15;;
79371;SDS011;68914;51.262;6.802;2023-05-07T00:37:13;8.45;;;5.25;;
79371;SDS011;68914;51.262;6.802;2023-05-07T00:38:14;9.93;;;5.30;;
79371;SDS011;68914;51.262;6.802;2023-05-07T00:39:15;9.82;;;5.07;;
79371;SDS011;68914;51.262;6.802;2023-05-07T00:40:15;9.77;;;5.30;;
79371;SDS011;68914;51.262;6.802;2023-05-07T00:41:16;9.50;;;5.00;;
79371;SDS011;68914;51.262;6.802;2023-05-07T00:42:17;7.77;;;4.77;;
79371;SDS011;68914;51.262;6.802;2023-05-07T00:43:18;9.27;;;5.05;;
79371;SDS011;68914;51.262;6.802;2023-05-07T00:44:19;7.70;;;4.78;;
79371;SDS011;68914;51.262;6.802;2023-05-07T00:45:19;9.30;;;4.90;;
79371;SDS011;68914;51.262;6.802;2023-05-07T00:46:20;8.03;;;4.60;;
79371;SDS011;68914;51.262;6.802;2023-05-07T00:47:21;9.27;;;4.80;;
79371;SDS011;68914;51.262;6.802;2023-05-07T00:48:22;9.68;;;4.65;;
79371;SDS011;68914;51.262;6.802;2023-05-07T00:49:26;8.32;;;4.63;;
79371;SDS011;68914;51.262;6.802;2023-05-07T00:50:37;8.65;;;4.70;;
79371;SDS011;68914;51.262;6.802;2023-05-07T00:51:38;7.63;;;4.73;;
79371;SDS011;68914;51.262;6.802;2023-05-07T00:52:39;8.85;;;4.70;;
79371;SDS011;68914;51.262;6.802;2023-05-07T00:53:39;9.52;;;4.70;;
79371;SDS011;68914;51.262;6.802;2023-05-07T00:54:40;8.13;;;4.90;;
79371;SDS011;68914;51.262;6.802;2023-05-07T00:55:41;8.20;;;4.85;;
79371;SDS011;68914;51.262;6.802;2023-05-07T00:56:42;9.50;;;4.72;;
79371;SDS011;68914;51.262;6.802;2023-05-07T00:57:43;8.57;;;5.07;;
79371;SDS011;68914;51.262;6.802;2023-05-07T00:58:44;8.93;;;5.18;;
79371;SDS011;68914;51.262;6.802;2023-05-07T00:59:45;9.00;;;5.20;;
79371;SDS011;68914;51.262;6.802;2023-05-07T01:00:46;9.18;;;5.07;;
79371;SDS011;68914;51.262;6.802;2023-05-07T01:01:46;8.57;;;5.00;;
79371;SDS011;68914;51.262;6.802;2023-05-07T01:02:48;8.57;;;5.07;;
79371;SDS011;68914;51.262;6.802;2023-05-07T01:03:48;9.87;;;5.00;;
79371;SDS011;68914;51.262;6.802;2023-05-07T01:04:49;8.15;;;4.60;;
79371;SDS011;68914;51.262;6.802;2023-05-07T01:05:49;8.23;;;4.90;;
79371;SDS011;68914;51.262;6.802;2023-05-07T01:06:52;9.13;;;4.97;;
79371;SDS011;68914;51.262;6.802;2023-05-07T01:07:56;10.18;;;4.90;;
79371;SDS011;68914;51.262;6.802;2023-05-07T01:08:57;11.30;;;5.60;;
79371;SDS011;68914;51.262;6.802;2023-05-07T01:10:00;9.63;;;5.72;;
79371;SDS011;68914;51.262;6.802;2023-05-07T01:11:02;9.73;;;5.55;;
79371;SDS011;68914;51.262;6.802;2023-05-07T01:12:03;9.07;;;5.10;;
79371;SDS011;68914;51.262;6.802;2023-05-07T01:13:04;9.25;;;5.57;;
79371;SDS011;68914;51.262;6.802;2023-05-07T01:14:05;10.02;;;5.40;;
79371;SDS011;68914;51.262;6.802;2023-05-07T01:15:08;9.10;;;5.63;;
79371;SDS011;68914;51.262;6.802;2023-05-07T01:16:10;9.43;;;4.90;;
79371;SDS011;68914;51.262;6.802;2023-05-07T01:17:11;10.03;;;4.90;;
79371;SDS011;68914;51.262;6.802;2023-05-07T01:18:12;9.27;;;5.10;;
79371;SDS011;68914;51.262;6.802;2023-05-07T01:19:14;8.85;;;5.05;;
79371;SDS011;68914;51.262;6.802;2023-05-07T01:20:18;9.27;;;4.88;;
79371;SDS011;68914;51.262;6.802;2023-05-07T01:21:23;9.00;;;4.77;;
79371;SDS011;68914;51.262;6.802;2023-05-07T01:22:35;8.27;;;4.97;;
79371;SDS011;68914;51.262;6.802;2023-05-07T01:23:37;8.57;;;5.15;;
79371;SDS011;68914;51.262;6.802;2023-05-07T01:24:40;9.48;;;5.15;;
79371;SDS011;68914;51.262;6.802;2023-05-07T01:25:42;8.93;;;4.82;;
79371;SDS011;68914;51.262;6.802;2023-05-07T01:26:44;8.60;;;4.80;;
79371;SDS011;68914;51.262;6.802;2023-05-07T01:27:47;10.35;;;5.78;;
79371;SDS011;68914;51.262;6.802;2023-05-07T01:28:48;10.70;;;5.20;;
79371;SDS011;68914;51.262;6.802;2023-05-07T01:29:48;8.32;;;4.72;;
79371;SDS011;68914;51.262;6.802;2023-05-07T01:30:58;8.47;;;5.07;;
79371;SDS011;68914;51.262;6.802;2023-05-07T01:32:02;8.03;;;5.17;;
79371;SDS011;68914;51.262;6.802;2023-05-07T01:33:04;11.10;;;5.13;;
79371;SDS011;68914;51.262;6.802;2023-05-07T01:34:09;8.15;;;4.72;;
79371;SDS011;68914;51.262;6.802;2023-05-07T01:35:15;9.52;;;5.05;;
79371;SDS011;68914;51.262;6.802;2023-05-07T01:36:20;7.93;;;4.85;;
79371;SDS011;68914;51.262;6.802;2023-05-07T01:37:23;9.57;;;4.70;;
79371;SDS011;68914;51.262;6.802;2023-05-07T01:38:25;9.50;;;4.80;;
79371;SDS011;68914;51.262;6.802;2023-05-07T01:39:27;9.10;;;4.80;;
79371;SDS011;68914;51.262;6.802;2023-05-07T01:40:29;8.70;;;5.03;;
79371;SDS011;68914;51.262;6.802;2023-05-07T01:41:30;9.43;;;4.82;;
79371;SDS011;68914;51.262;6.802;2023-05-07T01:42:31;9.70;;;4.93;;
79371;SDS011;68914;51.262;6.802;2023-05-07T01:43:32;8.27;;;4.82;;
79371;SDS011;68914;51.262;6.802;2023-05-07T01:44:33;8.45;;;4.45;;
79371;SDS011;68914;51.262;6.802;2023-05-07T01:45:34;8.43;;;4.60;;
79371;SDS011;68914;51.262;6.802;2023-05-07T01:46:35;7.83;;;4.53;;
79371;SDS011;68914;51.262;6.802;2023-05-07T01:47:36;8.13;;;4.70;;
79371;SDS011;68914;51.262;6.802;2023-05-07T01:48:37;8.23;;;4.63;;
79371;SDS011;68914;51.262;6.802;2023-05-07T01:49:38;7.85;;;4.50;;
79371;SDS011;68914;51.262;6.802;2023-05-07T01:50:40;9.32;;;4.80;;
79371;SDS011;68914;51.262;6.802;2023-05-07T01:51:44;9.43;;;4.78;;
79371;SDS011;68914;51.262;6.802;2023-05-07T01:52:45;7.47;;;4.60;;
79371;SDS011;68914;51.262;6.802;2023-05-07T01:53:47;9.07;;;5.00;;
79371;SDS011;68914;51.262;6.802;2023-05-07T01:54:51;8.07;;;4.50;;
79371;SDS011;68914;51.262;6.802;2023-05-07T01:55:52;7.45;;;4.53;;
79371;SDS011;68914;51.262;6.802;2023-05-07T01:56:56;8.95;;;4.50;;
79371;SDS011;68914;51.262;6.802;2023-05-07T01:57:57;8.98;;;4.35;;
79371;SDS011;68914;51.262;6.802;2023-05-07T01:58:58;9.17;;;4.53;;
79371;SDS011;68914;51.262;6.802;2023-05-07T01:59:58;9.73;;;4.60;;
79371;SDS011;68914;51.262;6.802;2023-05-07T02:00:59;7.27;;;4.37;;
79371;SDS011;68914;51.262;6.802;2023-05-07T02:02:00;9.23;;;4.60;;
79371;SDS011;68914;51.262;6.802;2023-05-07T02:03:01;9.73;;;4.88;;
79371;SDS011;68914;51.262;6.802;2023-05-07T02:04:10;9.10;;;4.65;;
79371;SDS011;68914;51.262;6.802;2023-05-07T02:05:10;9.70;;;4.90;;
79371;SDS011;68914;51.262;6.802;2023-05-07T02:06:12;8.43;;;4.22;;
79371;SDS011;68914;51.262;6.802;2023-05-07T02:07:14;7.13;;;4.30;;
79371;SDS011;68914;51.262;6.802;2023-05-07T02:08:14;7.95;;;4.47;;
79371;SDS011;68914;51.262;6.802;2023-05-07T02:09:15;9.60;;;4.40;;
79371;SDS011;68914;51.262;6.802;2023-05-07T02:10:19;9.57;;;4.50;;
79371;SDS011;68914;51.262;6.802;2023-05-07T02:11:22;8.77;;;4.40;;
79371;SDS011;68914;51.262;6.802;2023-05-07T02:12:23;8.88;;;4.30;;
79371;SDS011;68914;51.262;6.802;2023-05-07T02:13:25;8.47;;;4.37;;
79371;SDS011;68914;51.262;6.802;2023-05-07T02:14:27;7.50;;;4.00;;
79371;SDS011;68914;51.262;6.802;2023-05-07T02:15:28;7.85;;;4.18;;
79371;SDS011;68914;51.262;6.802;2023-05-07T02:16:29;9.10;;;4.38;;
79371;SDS011;68914;51.262;6.802;2023-05-07T02:17:30;8.63;;;4.30;;
79371;SDS011;68914;51.262;6.802;2023-05-07T02:18:32;8.52;;;4.50;;
79371;SDS011;68914;51.262;6.802;2023-05-07T02:19:33;8.02;;;4.30;;
79371;SDS011;68914;51.262;6.802;2023-05-07T02:20:33;7.90;;;4.30;;
79371;SDS011;68914;51.262;6.802;2023-05-07T02:21:34;8.17;;;4.50;;
79371;SDS011;68914;51.262;6.802;2023-05-07T02:22:34;7.18;;;4.22;;
79371;SDS011;68914;51.262;6.802;2023-05-07T02:23:35;7.90;;;4.20;;
79371;SDS011;68914;51.262;6.802;2023-05-07T02:24:36;7.72;;;4.22;;
79371;SDS011;68914;51.262;6.802;2023-05-07T02:25:36;7.43;;;4.27;;
79371;SDS011;68914;51.262;6.802;2023-05-07T02:26:37;9.80;;;4.35;;
79371;SDS011;68914;51.262;6.802;2023-05-07T02:27:38;7.40;;;4.50;;
79371;SDS011;68914;51.262;6.802;2023-05-07T02:28:38;8.45;;;4.60;;
79371;SDS011;68914;51.262;6.802;2023-05-07T02:29:40;9.05;;;4.60;;
79371;SDS011;68914;51.262;6.802;2023-05-07T02:30:41;7.35;;;4.25;;
79371;SDS011;68914;51.262;6.802;2023-05-07T02:31:42;7.40;;;4.22;;
79371;SDS011;68914;51.262;6.802;2023-05-07T02:32:43;8.60;;;4.43;;
79371;SDS011;68914;51.262;6.802;2023-05-07T02:33:43;8.63;;;4.50;;
79371;SDS011;68914;51.262;6.802;2023-05-07T02:34:46;8.23;;;4.32;;
79371;SDS011;68914;51.262;6.802;2023-05-07T02:35:46;8.67;;;4.30;;
79371;SDS011;68914;51.262;6.802;2023-05-07T02:36:49;8.05;;;4.28;;
79371;SDS011;68914;51.262;6.802;2023-05-07T02:37:53;8.27;;;4.50;;
79371;SDS011;68914;51.262;6.802;2023-05-07T02:38:54;9.65;;;4.45;;
79371;SDS011;68914;51.262;6.802;2023-05-07T02:39:54;8.35;;;4.93;;
79371;SDS011;68914;51.262;6.802;2023-05-07T02:40:55;8.60;;;5.13;;
79371;SDS011;68914;51.262;6.802;2023-05-07T02:41:56;8.68;;;4.75;;
79371;SDS011;68914;51.262;6.802;2023-05-07T02:42:56;8.37;;;4.40;;
79371;SDS011;68914;51.262;6.802;2023-05-07T02:43:57;7.38;;;4.60;;
79371;SDS011;68914;51.262;6.802;2023-05-07T02:44:58;8.85;;;4.57;;
79371;SDS011;68914;51.262;6.802;2023-05-07T02:46:08;7.93;;;4.50;;
79371;SDS011;68914;51.262;6.802;2023-05-07T02:47:13;9.02;;;4.40;;
79371;SDS011;68914;51.262;6.802;2023-05-07T02:48:15;7.90;;;4.70;;
79371;SDS011;68914;51.262;6.802;2023-05-07T02:49:16;7.55;;;4.10;;
79371;SDS011;68914;51.262;6.802;2023-05-07T02:50:17;7.28;;;4.32;;
79371;SDS011;68914;51.262;6.802;2023-05-07T02:51:21;9.30;;;4.40;;
79371;SDS011;68914;51.262;6.802;2023-05-07T02:52:23;8.45;;;4.68;;
79371;SDS011;68914;51.262;6.802;2023-05-07T02:53:23;8.80;;;4.50;;
79371;SDS011;68914;51.262;6.802;2023-05-07T02:54:26;7.80;;;4.70;;
79371;SDS011;68914;51.262;6.802;2023-05-07T02:55:27;7.47;;;3.83;;
79371;SDS011;68914;51.262;6.802;2023-05-07T02:56:27;7.38;;;4.25;;
79371;SDS011;68914;51.262;6.802;2023-05-07T02:57:28;9.03;;;4.50;;
79371;SDS011;68914;51.262;6.802;2023-05-07T02:58:28;7.72;;;4.32;;
79371;SDS011;68914;51.262;6.802;2023-05-07T02:59:30;8.25;;;4.93;;
79371;SDS011;68914;51.262;6.802;2023-05-07T03:00:31;8.65;;;4.50;;
79371;SDS011;68914;51.262;6.802;2023-05-07T03:01:56;9.65;;;4.80;;
79371;SDS011;68914;51.262;6.802;2023-05-07T03:02:57;9.10;;;4.87;;
79371;SDS011;68914;51.262;6.802;2023-05-07T03:03:58;8.75;;;4.65;;
79371;SDS011;68914;51.262;6.802;2023-05-07T03:04:58;8.10;;;4.50;;
79371;SDS011;68914;51.262;6.802;2023-05-07T03:05:59;8.17;;;4.40;;
79371;SDS011;68914;51.262;6.802;2023-05-07T03:07:00;8.60;;;4.53;;
79371;SDS011;68914;51.262;6.802;2023-05-07T03:08:01;7.65;;;4.07;;
79371;SDS011;68914;51.262;6.802;2023-05-07T03:09:02;9.30;;;4.40;;
79371;SDS011;68914;51.262;6.802;2023-05-07T03:10:04;9.07;;;4.27;;
79371;SDS011;68914;51.262;6.802;2023-05-07T03:11:05;7.55;;;4.28;;
79371;SDS011;68914;51.262;6.802;2023-05-07T03:12:06;7.10;;;4.10;;
79371;SDS011;68914;51.262;6.802;2023-05-07T03:13:07;7.32;;;4.40;;
79371;SDS011;68914;51.262;6.802;2023-05-07T03:14:07;7.47;;;4.27;;
79371;SDS011;68914;51.262;6.802;2023-05-07T03:15:08;8.43;;;4.20;;
79371;SDS011;68914;51.262;6.802;2023-05-07T03:16:10;7.90;;;4.68;;
79371;SDS011;68914;51.262;6.802;2023-05-07T03:17:11;7.33;;;4.20;;
79371;SDS011;68914;51.262;6.802;2023-05-07T03:18:12;7.47;;;4.00;;
79371;SDS011;68914;51.262;6.802;2023-05-07T03:19:12;8.57;;;4.20;;
79371;SDS011;68914;51.262;6.802;2023-05-07T03:20:13;8.10;;;4.27;;
79371;SDS011;68914;51.262;6.802;2023-05-07T03:21:15;7.30;;;4.20;;
79371;SDS011;68914;51.262;6.802;2023-05-07T03:22:16;7.78;;;4.35;;
79371;SDS011;68914;51.262;6.802;2023-05-07T03:23:16;7.60;;;3.80;;
79371;SDS011;68914;51.262;6.802;2023-05-07T03:24:17;7.55;;;4.05;;
79371;SDS011;68914;51.262;6.802;2023-05-07T03:25:18;7.77;;;4.47;;
79371;SDS011;68914;51.262;6.802;2023-05-07T03:26:18;7.67;;;4.23;;
79371;SDS011;68914;51.262;6.802;2023-05-07T03:27:20;8.82;;;4.50;;
79371;SDS011;68914;51.262;6.802;2023-05-07T03:28:21;7.68;;;4.50;;
79371;SDS011;68914;51.262;6.802;2023-05-07T03:29:28;9.70;;;4.50;;
79371;SDS011;68914;51.262;6.802;2023-05-07T03:30:28;9.82;;;4.97;;
79371;SDS011;68914;51.262;6.802;2023-05-07T03:31:29;8.77;;;4.32;;
79371;SDS011;68914;51.262;6.802;2023-05-07T03:32:30;8.07;;;4.23;;
79371;SDS011;68914;51.262;6.802;2023-05-07T03:33:34;9.75;;;4.60;;
79371;SDS011;68914;51.262;6.802;2023-05-07T03:34:35;7.80;;;4.20;;
79371;SDS011;68914;51.262;6.802;2023-05-07T03:35:35;7.70;;;4.50;;
79371;SDS011;68914;51.262;6.802;2023-05-07T03:36:36;8.07;;;4.07;;
79371;SDS011;68914;51.262;6.802;2023-05-07T03:37:45;7.30;;;4.03;;
79371;SDS011;68914;51.262;6.802;2023-05-07T03:38:47;9.32;;;4.55;;
79371;SDS011;68914;51.262;6.802;2023-05-07T03:39:51;9.55;;;4.72;;
79371;SDS011;68914;51.262;6.802;2023-05-07T03:40:53;8.35;;;4.60;;
79371;SDS011;68914;51.262;6.802;2023-05-07T03:41:53;7.70;;;4.60;;
79371;SDS011;68914;51.262;6.802;2023-05-07T03:42:54;8.27;;;4.28;;
79371;SDS011;68914;51.262;6.802;2023-05-07T03:43:57;8.40;;;4.60;;
79371;SDS011;68914;51.262;6.802;2023-05-07T03:44:58;9.07;;;4.73;;
79371;SDS011;68914;51.262;6.802;2023-05-07T03:45:59;7.70;;;4.15;;
79371;SDS011;68914;51.262;6.802;2023-05-07T03:47:02;9.68;;;4.43;;
79371;SDS011;68914;51.262;6.802;2023-05-07T03:48:03;7.40;;;4.25;;
79371;SDS011;68914;51.262;6.802;2023-05-07T03:49:04;7.90;;;4.20;;
79371;SDS011;68914;51.262;6.802;2023-05-07T03:50:05;8.20;;;4.33;;
79371;SDS011;68914;51.262;6.802;2023-05-07T03:51:06;6.75;;;3.80;;
79371;SDS011;68914;51.262;6.802;2023-05-07T03:52:07;6.63;;;3.90;;
79371;SDS011;68914;51.262;6.802;2023-05-07T03:53:08;7.50;;;3.70;;
79371;SDS011;68914;51.262;6.802;2023-05-07T03:54:12;6.85;;;3.70;;
79371;SDS011;68914;51.262;6.802;2023-05-07T03:55:17;7.80;;;3.97;;
79371;SDS011;68914;51.262;6.802;2023-05-07T03:56:23;7.95;;;4.10;;
79371;SDS011;68914;51.262;6.802;2023-05-07T03:57:28;8.15;;;3.95;;
79371;SDS011;68914;51.262;6.802;2023-05-07T03:58:30;6.90;;;3.78;;
79371;SDS011;68914;51.262;6.802;2023-05-07T03:59:33;7.93;;;3.95;;
79371;SDS011;68914;51.262;6.802;2023-05-07T04:00:34;7.43;;;3.93;;
79371;SDS011;68914;51.262;6.802;2023-05-07T04:01:44;7.18;;;3.90;;
79371;SDS011;68914;51.262;6.802;2023-05-07T04:02:49;7.40;;;3.80;;
79371;SDS011;68914;51.262;6.802;2023-05-07T04:03:56;8.20;;;4.22;;
79371;SDS011;68914;51.262;6.802;2023-05-07T04:04:57;8.43;;;4.00;;
79371;SDS011;68914;51.262;6.802;2023-05-07T04:05:58;8.23;;;3.95;;
79371;SDS011;68914;51.262;6.802;2023-05-07T04:06:59;7.50;;;3.70;;
79371;SDS011;68914;51.262;6.802;2023-05-07T04:08:01;8.25;;;3.88;;
79371;SDS011;68914;51.262;6.802;2023-05-07T04:09:10;9.35;;;4.20;;
79371;SDS011;68914;51.262;6.802;2023-05-07T04:10:12;9.07;;;4.20;;
79371;SDS011;68914;51.262;6.802;2023-05-07T04:11:15;7.50;;;3.70;;
79371;SDS011;68914;51.262;6.802;2023-05-07T04:12:15;6.60;;;3.28;;
79371;SDS011;68914;51.262;6.802;2023-05-07T04:13:16;7.20;;;3.50;;
79371;SDS011;68914;51.262;6.802;2023-05-07T04:14:17;6.30;;;3.20;;
79371;SDS011;68914;51.262;6.802;2023-05-07T04:15:18;6.80;;;3.53;;
79371;SDS011;68914;51.262;6.802;2023-05-07T04:16:18;6.90;;;3.50;;
79371;SDS011;68914;51.262;6.802;2023-05-07T04:17:19;7.32;;;3.25;;
79371;SDS011;68914;51.262;6.802;2023-05-07T04:18:20;5.90;;;3.13;;
79371;SDS011;68914;51.262;6.802;2023-05-07T04:19:22;7.18;;;3.20;;
79371;SDS011;68914;51.262;6.802;2023-05-07T04:20:26;7.27;;;3.30;;
79371;SDS011;68914;51.262;6.802;2023-05-07T04:21:33;7.05;;;3.10;;
79371;SDS011;68914;51.262;6.802;2023-05-07T04:22:34;5.82;;;2.90;;
79371;SDS011;68914;51.262;6.802;2023-05-07T04:23:35;6.60;;;3.20;;
79371;SDS011;68914;51.262;6.802;2023-05-07T04:24:38;6.63;;;2.95;;
79371;SDS011;68914;51.262;6.802;2023-05-07T04:25:39;5.53;;;3.00;;
79371;SDS011;68914;51.262;6.802;2023-05-07T04:26:51;5.93;;;3.00;;
79371;SDS011;68914;51.262;6.802;2023-05-07T04:27:54;6.13;;;3.10;;
79371;SDS011;68914;51.262;6.802;2023-05-07T04:28:56;6.18;;;3.28;;
79371;SDS011;68914;51.262;6.802;2023-05-07T04:29:58;8.05;;;3.17;;
79371;SDS011;68914;51.262;6.802;2023-05-07T04:31:01;8.05;;;4.18;;
79371;SDS011;68914;51.262;6.802;2023-05-07T04:32:04;8.25;;;4.10;;
79371;SDS011;68914;51.262;6.802;2023-05-07T04:33:05;8.77;;;4.00;;
79371;SDS011;68914;51.262;6.802;2023-05-07T04:34:07;6.65;;;3.40;;
79371;SDS011;68914;51.262;6.802;2023-05-07T04:35:09;6.78;;;3.33;;
79371;SDS011;68914;51.262;6.802;2023-05-07T04:36:10;7.23;;;3.60;;
79371;SDS011;68914;51.262;6.802;2023-05-07T04:37:18;9.10;;;4.53;;
79371;SDS011;68914;51.262;6.802;2023-05-07T04:38:19;7.22;;;3.83;;
79371;SDS011;68914;51.262;6.802;2023-05-07T04:39:21;8.90;;;3.70;;
79371;SDS011;68914;51.262;6.802;2023-05-07T04:40:23;7.47;;;3.72;;
79371;SDS011;68914;51.262;6.802;2023-05-07T04:41:23;8.27;;;3.63;;
79371;SDS011;68914;51.262;6.802;2023-05-07T04:42:24;7.43;;;3.20;;
79371;SDS011;68914;51.262;6.802;2023-05-07T04:43:25;7.07;;;3.42;;
79371;SDS011;68914;51.262;6.802;2023-05-07T04:44:25;7.35;;;3.40;;
79371;SDS011;68914;51.262;6.802;2023-05-07T04:45:26;6.97;;;3.50;;
79371;SDS011;68914;51.262;6.802;2023-05-07T04:46:28;6.68;;;3.47;;
79371;SDS011;68914;51.262;6.802;2023-05-07T04:47:31;8.50;;;3.78;;
79371;SDS011;68914;51.262;6.802;2023-05-07T04:48:32;6.60;;;3.63;;
79371;SDS011;68914;51.262;6.802;2023-05-07T04:49:34;6.25;;;3.58;;
79371;SDS011;68914;51.262;6.802;2023-05-07T04:50:35;6.57;;;3.43;;
79371;SDS011;68914;51.262;6.802;2023-05-07T04:51:37;8.00;;;4.00;;
79371;SDS011;68914;51.262;6.802;2023-05-07T04:52:39;6.45;;;3.50;;
79371;SDS011;68914;51.262;6.802;2023-05-07T04:53:40;7.10;;;3.47;;
79371;SDS011;68914;51.262;6.802;2023-05-07T04:54:40;6.85;;;3.42;;
79371;SDS011;68914;51.262;6.802;2023-05-07T04:55:42;7.43;;;3.90;;
79371;SDS011;68914;51.262;6.802;2023-05-07T04:56:42;6.47;;;3.80;;
79371;SDS011;68914;51.262;6.802;2023-05-07T04:57:43;6.72;;;3.50;;
79371;SDS011;68914;51.262;6.802;2023-05-07T04:58:47;9.60;;;3.50;;
79371;SDS011;68914;51.262;6.802;2023-05-07T04:59:50;7.45;;;3.70;;
79371;SDS011;68914;51.262;6.802;2023-05-07T05:00:51;6.22;;;3.60;;
79371;SDS011;68914;51.262;6.802;2023-05-07T05:01:52;6.85;;;3.50;;
79371;SDS011;68914;51.262;6.802;2023-05-07T05:02:52;7.33;;;3.80;;
79371;SDS011;68914;51.262;6.802;2023-05-07T05:03:55;8.35;;;3.60;;
79371;SDS011;68914;51.262;6.802;2023-05-07T05:04:56;7.32;;;3.40;;
79371;SDS011;68914;51.262;6.802;2023-05-07T05:05:57;6.17;;;3.10;;
79371;SDS011;68914;51.262;6.802;2023-05-07T05:07:02;6.28;;;3.40;;
79371;SDS011;68914;51.262;6.802;2023-05-07T05:08:04;7.20;;;3.55;;
79371;SDS011;68914;51.262;6.802;2023-05-07T05:09:05;8.43;;;4.90;;
79371;SDS011;68914;51.262;6.802;2023-05-07T05:10:07;8.07;;;4.50;;
79371;SDS011;68914;51.262;6.802;2023-05-07T05:11:11;7.15;;;3.60;;
79371;SDS011;68914;51.262;6.802;2023-05-07T05:12:12;8.23;;;4.10;;
79371;SDS011;68914;51.262;6.802;2023-05-07T05:13:13;9.77;;;3.63;;
79371;SDS011;68914;51.262;6.802;2023-05-07T05:14:14;7.80;;;3.42;;
79371;SDS011;68914;51.262;6.802;2023-05-07T05:15:15;8.60;;;3.80;;
79371;SDS011;68914;51.262;6.802;2023-05-07T05:16:16;6.80;;;3.33;;
79371;SDS011;68914;51.262;6.802;2023-05-07T05:17:17;6.63;;;3.37;;
79371;SDS011;68914;51.262;6.802;2023-05-07T05:18:17;7.20;;;3.42;;
79371;SDS011;68914;51.262;6.802;2023-05-07T05:19:19;6.40;;;3.60;;
79371;SDS011;68914;51.262;6.802;2023-05-07T05:20:19;6.83;;;3.67;;
79371;SDS011;68914;51.262;6.802;2023-05-07T05:21:22;9.18;;;3.45;;
79371;SDS011;68914;51.262;6.802;2023-05-07T05:22:26;8.63;;;3.60;;
79371;SDS011;68914;51.262;6.802;2023-05-07T05:23:30;6.85;;;3.13;;
79371;SDS011;68914;51.262;6.802;2023-05-07T05:24:31;6.60;;;3.45;;
79371;SDS011;68914;51.262;6.802;2023-05-07T05:25:31;6.67;;;3.30;;
79371;SDS011;68914;51.262;6.802;2023-05-07T05:26:33;8.35;;;3.15;;
79371;SDS011;68914;51.262;6.802;2023-05-07T05:27:34;8.55;;;3.40;;
79371;SDS011;68914;51.262;6.802;2023-05-07T05:28:35;6.68;;;3.50;;
79371;SDS011;68914;51.262;6.802;2023-05-07T05:29:36;6.80;;;3.22;;
79371;SDS011;68914;51.262;6.802;2023-05-07T05:30:38;6.55;;;3.30;;
79371;SDS011;68914;51.262;6.802;2023-05-07T05:31:39;7.50;;;3.43;;
79371;SDS011;68914;51.262;6.802;2023-05-07T05:32:41;6.90;;;3.40;;
79371;SDS011;68914;51.262;6.802;2023-05-07T05:33:42;6.60;;;3.40;;
79371;SDS011;68914;51.262;6.802;2023-05-07T05:34:43;7.40;;;3.77;;
79371;SDS011;68914;51.262;6.802;2023-05-07T05:35:43;7.60;;;3.88;;
79371;SDS011;68914;51.262;6.802;2023-05-07T05:36:46;7.88;;;3.78;;
79371;SDS011;68914;51.262;6.802;2023-05-07T05:37:48;6.82;;;3.35;;
79371;SDS011;68914;51.262;6.802;2023-05-07T05:38:50;7.32;;;3.25;;
79371;SDS011;68914;51.262;6.802;2023-05-07T05:39:51;6.95;;;3.70;;
79371;SDS011;68914;51.262;6.802;2023-05-07T05:40:53;7.07;;;3.10;;
79371;SDS011;68914;51.262;6.802;2023-05-07T05:41:54;7.93;;;2.83;;
79371;SDS011;68914;51.262;6.802;2023-05-07T05:42:55;6.27;;;2.90;;
79371;SDS011;68914;51.262;6.802;2023-05-07T05:43:56;5.82;;;3.17;;
79371;SDS011;68914;51.262;6.802;2023-05-07T05:44:57;6.55;;;3.05;;
79371;SDS011;68914;51.262;6.802;2023-05-07T05:45:58;10.75;;;3.80;;
79371;SDS011;68914;51.262;6.802;2023-05-07T05:46:59;8.18;;;3.85;;
79371;SDS011;68914;51.262;6.802;2023-05-07T05:48:00;9.23;;;4.77;;
79371;SDS011;68914;51.262;6.802;2023-05-07T05:49:01;9.15;;;4.50;;
79371;SDS011;68914;51.262;6.802;2023-05-07T05:50:01;6.30;;;3.57;;
79371;SDS011;68914;51.262;6.802;2023-05-07T05:51:02;6.95;;;3.30;;
79371;SDS011;68914;51.262;6.802;2023-05-07T05:52:03;7.38;;;2.95;;
79371;SDS011;68914;51.262;6.802;2023-05-07T05:53:04;6.93;;;3.07;;
79371;SDS011;68914;51.262;6.802;2023-05-07T05:54:04;6.82;;;3.08;;
79371;SDS011;68914;51.262;6.802;2023-05-07T05:55:06;7.78;;;3.03;;
79371;SDS011;68914;51.262;6.802;2023-05-07T05:56:09;6.53;;;2.90;;
79371;SDS011;68914;51.262;6.802;2023-05-07T05:57:12;6.75;;;2.97;;
79371;SDS011;68914;51.262;6.802;2023-05-07T05:58:13;7.83;;;3.10;;
79371;SDS011;68914;51.262;6.802;2023-05-07T05:59:18;5.78;;;3.10;;
79371;SDS011;68914;51.262;6.802;2023-05-07T06:00:19;6.20;;;3.03;;
79371;SDS011;68914;51.262;6.802;2023-05-07T06:01:29;6.53;;;2.60;;
79371;SDS011;68914;51.262;6.802;2023-05-07T06:02:33;7.07;;;2.90;;
79371;SDS011;68914;51.262;6.802;2023-05-07T06:03:34;7.23;;;2.67;;
79371;SDS011;68914;51.262;6.802;2023-05-07T06:04:39;7.32;;;3.20;;
79371;SDS011;68914;51.262;6.802;2023-05-07T06:05:39;6.57;;;2.88;;
79371;SDS011;68914;51.262;6.802;2023-05-07T06:06:40;6.57;;;3.10;;
79371;SDS011;68914;51.262;6.802;2023-05-07T06:07:41;6.03;;;3.07;;
79371;SDS011;68914;51.262;6.802;2023-05-07T06:08:42;6.15;;;2.60;;
79371;SDS011;68914;51.262;6.802;2023-05-07T06:09:43;5.70;;;2.70;;
79371;SDS011;68914;51.262;6.802;2023-05-07T06:10:44;6.05;;;2.70;;
79371;SDS011;68914;51.262;6.802;2023-05-07T06:11:45;6.40;;;2.90;;
79371;SDS011;68914;51.262;6.802;2023-05-07T06:12:47;6.25;;;2.83;;